METAR LFGJ :
2022/11/27 15:30
LFGJ 271530Z AUTO 09004KT CAVOK 07/06 Q1019 NOSIG


TAF LFGJ :
2020/06/22 09:21
TAF LFGJ 220800Z 2209/2221 01008KT 9999 FEW035 BKN053 
      BECMG 2212/2215 CAVOK